Los Lunas ASC

April 5, 2020, 11:25 a.m.

  • imperial
Air Temperature RH Dewpoint Wind Chill Heat Index Wind Speed Wind Direction Precipitation Solar Radiation Soil Temperature
Date Time Max Mean Mean Total Total
US/Mountain F % F F F MPH MPH MPH deg. deg. in. MJ/m^2 F
2020-04-04 11:25 59.49 31.51 29.21 59.49 59.49 0.81 4.92 1.77 81.0 295.8 0.0 0.22 60.24
2020-04-04 11:30 58.82 34.8 31.07 58.82 58.82 3.85 4.74 3.38 150.3 51.8 0.0 0.223 60.48
2020-04-04 11:35 58.57 33.61 29.99 58.57 58.57 5.82 6.17 3.87 194.5 171.9 0.0 0.224 60.75
2020-04-04 11:40 58.44 34.56 30.57 58.44 58.44 1.7 5.28 2.98 29.4 241.3 0.0 0.226 61.02
2020-04-04 11:45 59.47 31.84 29.45 59.47 59.47 1.7 4.56 2.08 225.7 201.6 0.0 0.229 61.27
2020-04-04 11:50 60.46 33.1 31.28 60.46 60.46 2.06 4.03 1.99 120.2 96.9 0.0 0.231 61.52
2020-04-04 11:55 60.69 35.2 33.01 60.69 60.69 2.06 3.85 2.44 127.1 165.5 0.0 0.233 61.79
2020-04-04 12:00 60.33 34.49 32.19 60.33 60.33 2.77 4.92 3.11 204.0 188.3 0.0 0.234 62.06
2020-04-04 12:05 61.3 30.86 30.29 61.3 61.3 3.31 3.85 2.66 176.7 159.6 0.0 0.236 62.33
2020-04-04 12:10 60.19 32.07 30.26 60.19 60.19 6.35 6.35 3.31 40.1 267.0 0.0 0.238 62.62
2020-04-04 12:15 60.57 38.49 35.14 60.57 60.57 1.7 5.82 3.65 238.6 51.0 0.0 0.239 62.89
2020-04-04 12:20 62.26 28.37 29.05 62.26 62.26 2.42 3.85 2.42 62.6 76.3 0.0 0.241 63.18
2020-04-04 12:25 61.9 29.63 29.8 61.9 61.9 1.88 4.21 2.35 181.1 92.5 0.0 0.243 63.45
2020-04-04 12:30 62.74 29.42 30.36 62.74 62.74 4.03 5.28 2.44 167.2 113.8 0.0 0.244 63.73
2020-04-04 12:35 62.87 28.95 30.08 62.87 62.87 2.24 6.53 2.73 290.0 199.2 0.0 0.246 64.04
2020-04-04 12:40 63.36 27.22 28.98 63.36 63.36 4.21 5.28 3.33 164.8 208.2 0.0 0.247 64.29
2020-04-04 12:45 62.74 29.56 30.48 62.74 62.74 3.67 6.17 4.03 145.1 201.3 0.0 0.247 64.6
2020-04-04 12:50 63.73 25.96 28.15 63.73 63.73 1.7 4.03 2.44 102.8 220.1 0.0 0.248 64.87
2020-04-04 12:55 64.04 27.83 30.11 64.04 64.04 4.38 5.64 2.93 62.0 78.7 0.0 0.249 65.14
2020-04-04 13:00 64.35 26.47 29.15 64.35 64.35 5.1 6.17 2.86 15.4 11.0 0.0 0.249 65.43
2020-04-04 13:05 64.09 26.51 28.97 64.09 64.09 2.95 4.38 3.58 79.5 36.7 0.0 0.249 65.71
2020-04-04 13:10 65.01 28.0 31.1 65.01 65.01 3.67 8.12 3.13 203.0 147.7 0.0 0.25 65.98
2020-04-04 13:15 65.32 24.74 28.32 65.32 65.32 6.17 6.53 4.88 183.2 206.2 0.0 0.249 66.27
2020-04-04 13:20 65.57 24.16 27.96 65.57 65.57 4.92 4.92 3.2 181.6 310.7 0.0 0.248 66.56
2020-04-04 13:25 65.68 23.38 27.25 65.68 65.68 1.52 5.28 2.95 139.4 132.4 0.0 0.248 66.81
2020-04-04 13:30 65.44 23.69 27.37 65.44 65.44 2.24 4.92 2.82 322.7 31.9 0.0 0.249 67.1
2020-04-04 13:35 66.47 22.84 27.35 66.47 66.47 3.67 6.35 3.8 152.9 134.0 0.0 0.248 67.35
2020-04-04 13:40 66.52 22.74 27.29 66.52 66.52 2.24 7.07 3.51 113.9 172.0 0.0 0.247 67.66
2020-04-04 13:45 67.26 22.29 27.42 67.26 67.26 2.24 6.53 3.83 16.5 222.6 0.0 0.246 67.91
2020-04-04 13:50 67.86 25.68 31.4 67.86 67.86 0.81 4.21 2.04 237.4 0.2 0.0 0.246 68.16
2020-04-04 13:55 68.34 22.8 28.88 68.34 68.34 2.59 8.48 4.34 210.7 159.2 0.0 0.245 68.41
2020-04-04 14:00 68.52 22.56 28.77 68.52 68.52 1.88 4.92 2.98 58.1 151.5 0.0 0.244 68.68
2020-04-04 14:05 67.55 21.98 27.32 67.55 67.55 5.64 8.3 3.94 214.1 40.8 0.0 0.242 68.94
2020-04-04 14:10 67.17 20.29 25.08 67.17 67.17 5.64 8.68 6.58 176.8 203.2 0.0 0.24 69.19
2020-04-04 14:15 67.66 21.17 26.5 67.66 67.66 2.42 4.74 3.74 204.8 200.8 0.0 0.239 69.42
2020-04-04 14:20 68.65 21.48 27.68 68.65 68.65 4.74 8.3 4.41 173.3 218.7 0.0 0.238 69.67
2020-04-04 14:25 68.14 20.66 26.32 68.14 68.14 5.82 8.68 5.55 233.2 196.8 0.0 0.236 69.94
2020-04-04 14:30 68.83 23.31 29.83 68.83 68.83 1.34 5.46 2.82 121.8 122.9 0.0 0.235 70.16
2020-04-04 14:35 69.75 20.12 27.01 69.75 69.75 4.38 5.28 2.82 200.9 152.6 0.0 0.234 70.38
2020-04-04 14:40 69.13 19.95 26.29 69.13 69.13 3.31 9.04 6.02 189.9 179.6 0.0 0.232 70.61
2020-04-04 14:45 69.67 21.85 28.96 69.67 69.67 3.49 7.96 3.71 112.7 181.1 0.0 0.229 70.83
2020-04-04 14:50 69.8 19.3 26.04 69.8 69.8 5.1 9.4 5.21 162.3 166.3 0.0 0.228 71.04
2020-04-04 14:55 70.34 18.22 25.1 70.34 70.34 6.0 8.12 5.39 187.9 180.3 0.0 0.226 71.24
2020-04-04 15:00 69.55 20.15 26.88 69.55 69.55 5.1 7.07 3.98 127.3 167.9 0.0 0.224 71.46
2020-04-04 15:05 70.27 20.22 27.56 70.27 70.27 4.03 10.63 5.46 187.4 201.0 0.0 0.221 71.67
2020-04-04 15:10 69.73 18.89 25.47 69.73 69.73 5.64 9.73 6.26 143.9 195.9 0.0 0.218 71.85
2020-04-04 15:15 70.27 20.76 28.2 70.27 70.27 4.92 9.4 5.12 177.1 158.8 0.0 0.215 72.05
2020-04-04 15:20 71.26 17.57 24.98 71.26 71.26 5.82 6.35 4.65 139.4 177.4 0.0 0.212 72.23
2020-04-04 15:25 71.19 18.86 26.63 71.19 71.19 5.46 9.91 5.46 172.8 182.9 0.0 0.209 72.41
2020-04-04 15:30 70.27 18.25 25.08 70.27 70.27 3.85 9.73 5.17 163.9 202.0 0.0 0.197 72.61
2020-04-04 15:35 70.7 18.69 26.01 70.7 70.7 6.35 8.48 5.44 276.7 186.2 0.0 0.074 72.73
2020-04-04 15:40 71.13 18.11 25.6 71.13 71.13 3.31 7.78 5.48 210.7 214.2 0.0 0.18 72.91
2020-04-04 15:45 71.01 17.27 24.36 71.01 71.01 3.31 8.48 5.01 196.7 197.4 0.0 0.197 73.08
2020-04-04 15:50 70.95 18.32 25.73 70.95 70.95 7.96 10.09 5.82 206.6 189.8 0.0 0.194 73.2
2020-04-04 15:55 71.13 17.71 25.06 71.13 71.13 2.42 7.78 4.99 173.9 182.8 0.0 0.19 73.36
2020-04-04 16:00 71.55 19.27 27.44 71.55 71.55 4.03 8.48 5.41 221.9 203.9 0.0 0.187 73.51
2020-04-04 16:05 71.01 17.67 24.91 71.01 71.01 4.92 8.86 5.39 161.3 187.5 0.0 0.183 73.63
2020-04-04 16:10 70.88 17.3 24.3 70.88 70.88 1.52 7.78 4.54 79.0 165.1 0.0 0.18 73.76
2020-04-04 16:15 71.19 16.82 23.87 71.19 71.19 4.03 7.25 4.16 205.6 201.9 0.0 0.176 73.87
2020-04-04 16:20 71.67 17.23 24.84 71.67 71.67 3.31 7.78 5.41 178.0 205.9 0.0 0.172 73.99
2020-04-04 16:25 72.23 15.77 23.18 72.23 72.23 2.59 6.53 3.42 92.9 136.9 0.0 0.168 74.1
2020-04-04 16:30 71.8 16.45 23.84 71.8 71.8 4.38 7.25 4.74 219.0 167.8 0.0 0.164 74.19
2020-04-04 16:35 71.73 16.28 23.53 71.73 71.73 2.95 8.68 4.65 207.2 206.4 0.0 0.16 74.28
2020-04-04 16:40 72.09 15.81 23.12 72.09 72.09 5.1 5.82 3.6 241.1 178.7 0.0 0.156 74.32
2020-04-04 16:45 72.88 15.26 22.92 72.88 72.88 3.31 6.35 3.74 218.5 176.9 0.0 0.135 74.39
2020-04-04 16:50 71.83 15.6 22.6 71.83 71.83 4.92 6.17 5.1 128.4 205.0 0.0 0.112 74.46
2020-04-04 16:55 71.17 16.35 23.18 71.17 71.17 4.74 5.1 3.6 188.0 184.9 0.0 0.089 74.48
2020-04-04 17:00 71.47 15.33 21.9 71.47 71.47 4.92 8.3 5.64 194.2 179.6 0.0 0.118 74.53
2020-04-04 17:05 70.74 15.26 21.2 70.74 70.74 3.13 5.82 4.05 187.4 174.3 0.0 0.072 74.55
2020-04-04 17:10 70.81 15.37 21.42 70.81 70.81 4.56 6.89 4.21 269.2 206.9 0.0 0.073 74.57
2020-04-04 17:15 70.14 16.86 23.08 70.14 70.14 1.52 6.71 3.71 134.1 197.5 0.0 0.023 74.61
2020-04-04 17:20 70.14 16.59 22.7 70.14 70.14 1.52 4.38 2.26 214.8 209.4 0.0 0.029 74.59
2020-04-04 17:25 71.01 16.25 22.9 71.01 71.01 5.82 6.71 2.86 186.9 200.4 0.0 0.03 74.57
2020-04-04 17:30 70.95 16.18 22.76 70.95 70.95 5.1 7.43 5.19 181.5 196.2 0.0 0.026 74.52
2020-04-04 17:35 70.36 16.86 23.26 70.36 70.36 1.7 5.1 2.8 80.8 177.8 0.0 0.03 74.48
2020-04-04 17:40 70.79 16.32 22.83 70.79 70.79 1.34 3.49 1.83 263.8 170.8 0.0 0.031 74.41
2020-04-04 17:45 71.55 15.3 21.91 71.55 71.55 6.35 6.35 2.86 180.9 189.7 0.0 0.024 74.32
2020-04-04 17:50 71.67 16.73 24.14 71.67 71.67 2.77 6.17 4.38 191.2 201.1 0.0 0.022 74.25
2020-04-04 17:55 71.67 16.32 23.54 71.67 71.67 2.06 5.28 2.37 185.2 176.4 0.0 0.022 74.14
2020-04-04 18:00 71.49 15.68 22.45 71.49 71.49 4.38 5.46 3.22 191.5 186.4 0.0 0.023 74.01
2020-04-04 18:05 71.06 16.22 22.9 71.06 71.06 5.28 8.68 4.05 192.1 185.0 0.0 0.023 73.9
2020-04-04 18:10 70.2 16.32 22.35 70.2 70.2 6.17 7.43 4.9 197.6 212.2 0.0 0.023 73.78
2020-04-04 18:15 70.39 15.54 21.35 70.39 70.39 5.28 7.96 5.68 207.5 187.4 0.0 0.022 73.65
2020-04-04 18:20 70.02 16.83 22.94 70.02 70.02 3.13 6.35 3.58 150.0 204.3 0.0 0.022 73.54
2020-04-04 18:25 70.09 15.55 21.12 70.09 70.09 4.38 7.25 4.79 212.7 193.2 0.0 0.02 73.44
2020-04-04 18:30 69.98 16.36 22.23 69.98 69.98 2.24 6.89 3.67 188.0 169.3 0.0 0.021 73.29
2020-04-04 18:35 69.91 16.46 22.32 69.91 69.91 2.59 4.21 2.95 181.9 196.8 0.0 0.024 73.15
2020-04-04 18:40 70.16 16.12 22.03 70.16 70.16 4.92 6.89 4.68 194.3 193.5 0.0 0.024 73.02
2020-04-04 18:45 69.98 16.26 22.09 69.98 69.98 3.49 8.86 5.35 205.9 201.1 0.0 0.017 72.9
2020-04-04 18:50 69.73 16.7 22.52 69.73 69.73 3.85 8.86 4.47 194.7 188.7 0.0 0.016 72.77
2020-04-04 18:55 69.67 15.44 20.62 69.67 69.67 6.17 6.53 4.59 182.9 178.0 0.0 0.013 72.63
2020-04-04 19:00 69.31 15.68 20.69 69.31 69.31 5.1 7.43 4.0 183.0 186.6 0.0 0.01 72.5
2020-04-04 19:05 68.88 16.4 21.4 68.88 68.88 6.0 6.0 4.16 188.9 198.0 0.0 0.008 72.36
2020-04-04 19:10 68.94 15.0 19.35 68.94 68.94 4.21 11.52 5.28 185.4 189.9 0.0 0.006 72.23
2020-04-04 19:15 69.19 15.41 20.18 69.19 69.19 3.13 7.07 4.52 188.6 185.9 0.0 0.004 72.12
2020-04-04 19:20 68.45 15.07 19.07 68.45 68.45 4.56 5.28 3.69 209.9 177.7 0.0 0.003 72.01
2020-04-04 19:25 68.58 14.97 19.01 68.58 68.58 5.28 7.07 3.89 175.9 174.6 0.0 0.002 71.89
2020-04-04 19:30 68.47 15.51 19.76 68.47 68.47 2.06 7.43 4.14 184.9 173.0 0.0 0.001 71.76
2020-04-04 19:35 68.52 15.11 19.19 68.52 68.52 3.67 9.22 4.56 109.9 179.7 0.0 0.001 71.62
2020-04-04 19:40 68.16 14.9 18.57 68.16 68.16 5.46 8.12 4.52 189.0 175.2 0.0 0.001 71.49
2020-04-04 19:45 67.93 15.14 18.76 67.93 67.93 6.71 8.3 4.18 174.2 178.0 0.0 0.0 71.37
2020-04-04 19:50 68.16 15.24 19.1 68.16 68.16 2.77 7.43 4.43 112.0 166.7 0.0 0.0 71.24
2020-04-04 19:55 67.62 15.24 18.66 67.62 67.62 4.21 5.28 3.0 175.3 142.4 0.0 0.0 71.11
2020-04-04 20:00 67.24 16.13 19.69 67.24 67.24 1.88 4.38 2.75 185.5 160.3 0.0 0.0 71.01
2020-04-04 20:05 66.76 16.36 19.63 66.76 66.76 1.34 4.03 2.17 191.4 152.6 0.0 0.0 70.9
2020-04-04 20:10 66.52 16.03 18.96 66.52 66.52 2.06 6.0 3.38 211.0 165.0 0.0 0.0 70.77
2020-04-04 20:15 66.6 15.82 18.71 66.6 66.6 2.24 4.56 3.0 83.2 160.8 0.0 0.0 70.65
2020-04-04 20:20 66.47 16.5 19.59 66.47 66.47 4.21 7.25 3.38 181.5 163.5 0.0 0.0 70.5
2020-04-04 20:25 66.22 15.62 18.11 66.22 66.22 3.13 6.53 3.4 200.1 176.0 0.0 0.0 70.39
2020-04-04 20:30 66.16 15.76 18.27 66.16 66.16 2.59 6.35 3.44 169.4 170.1 0.0 0.0 70.27
2020-04-04 20:35 65.88 16.06 18.48 65.88 65.88 4.74 4.74 2.82 180.3 179.6 0.0 0.0 70.16
2020-04-04 20:40 65.88 16.0 18.39 65.88 65.88 3.13 6.35 3.85 105.4 175.6 0.0 0.0 70.03
2020-04-04 20:45 65.93 15.79 18.13 65.93 65.93 2.77 6.0 3.78 182.6 188.3 0.0 0.0 69.91
2020-04-04 20:50 65.64 15.79 17.89 65.64 65.64 3.31 5.46 3.42 192.9 184.7 0.0 0.0 69.8
2020-04-04 20:55 65.34 16.44 18.59 65.34 65.34 2.95 5.82 3.0 194.6 199.8 0.0 0.0 69.69
2020-04-04 21:00 65.14 16.23 18.13 65.14 65.14 6.35 7.61 4.38 148.8 184.2 0.0 0.0 69.57
2020-04-04 21:05 65.34 16.4 18.53 65.34 65.34 3.67 7.43 4.88 218.0 195.8 0.0 0.0 69.46
2020-04-04 21:10 64.9 16.78 18.71 64.9 64.9 5.82 7.25 5.08 187.5 189.9 0.0 0.0 69.37
2020-04-04 21:15 64.6 17.05 18.84 64.6 64.6 6.0 7.43 4.38 195.6 199.7 0.0 0.0 69.24
2020-04-04 21:20 64.17 17.59 19.21 64.17 64.17 4.03 7.07 5.03 214.1 195.9 0.0 0.0 69.13
2020-04-04 21:25 63.91 17.39 18.74 63.91 63.91 4.21 7.43 4.25 242.1 215.0 0.0 0.0 69.03
2020-04-04 21:30 63.73 16.61 17.53 63.73 63.73 5.1 6.17 4.56 211.8 208.7 0.0 0.0 68.9
2020-04-04 21:35 64.53 15.21 16.13 64.53 64.53 9.22 9.22 5.12 239.0 214.8 0.0 0.0 68.79
2020-04-04 21:40 64.47 15.45 16.45 64.47 64.47 5.64 8.68 5.84 217.8 215.6 0.0 0.0 68.65
2020-04-04 21:45 64.65 15.59 16.8 64.65 64.65 4.92 8.86 6.69 190.1 236.0 0.0 0.0 68.56
2020-04-04 21:50 64.24 16.03 17.11 64.24 64.24 6.71 12.24 7.29 223.8 233.0 0.0 0.0 68.43
2020-04-04 21:55 64.29 16.17 17.36 64.29 64.29 9.04 13.13 8.25 265.9 236.2 0.0 0.0 68.31
2020-04-04 22:00 64.67 15.9 17.27 64.67 64.67 14.56 15.82 9.8 220.4 235.5 0.0 0.0 68.2
2020-04-04 22:05 64.9 16.13 17.79 64.9 64.9 8.12 14.03 10.78 222.1 235.3 0.0 0.0 68.09
2020-04-04 22:10 64.42 16.54 17.98 64.42 64.42 6.35 13.85 8.77 244.4 238.7 0.0 0.0 67.96
2020-04-04 22:15 64.29 16.71 18.12 64.29 64.29 12.24 13.85 10.02 262.1 243.5 0.0 0.0 67.86
2020-04-04 22:20 64.24 17.22 18.77 64.24 64.24 8.86 12.42 7.54 205.6 240.4 0.0 0.0 67.75
2020-04-04 22:25 63.73 17.32 18.5 63.73 63.73 7.43 10.27 7.14 220.9 238.3 0.0 0.0 67.62
2020-04-04 22:30 63.37 17.83 18.88 63.37 63.37 4.21 9.91 6.76 266.7 245.4 0.0 0.0 67.53
2020-04-04 22:35 62.89 18.03 18.74 62.89 62.89 6.0 9.04 5.06 241.7 244.4 0.0 0.0 67.42
2020-04-04 22:40 62.15 18.68 18.96 62.15 62.15 3.31 9.4 4.5 259.7 243.9 0.0 0.0 67.3
2020-04-04 22:45 61.79 19.29 19.42 61.79 61.79 1.16 7.61 3.24 257.8 241.3 0.0 0.0 67.21
2020-04-04 22:50 61.07 19.33 18.87 61.07 61.07 2.42 8.86 3.91 226.2 239.0 0.0 0.0 67.08
2020-04-04 22:55 60.69 19.26 18.47 60.69 60.69 2.77 7.25 3.91 230.6 243.5 0.0 0.0 66.96
2020-04-04 23:00 60.46 19.77 18.89 60.46 60.46 3.49 6.17 3.42 316.3 250.5 0.0 0.0 66.88
2020-04-04 23:05 60.1 19.29 18.02 60.1 60.1 2.95 6.0 3.31 243.2 234.0 0.0 0.0 66.76
2020-04-04 23:10 59.92 19.26 17.83 59.92 59.92 4.56 6.17 3.78 264.6 238.6 0.0 0.0 66.63
2020-04-04 23:15 60.4 18.28 17.02 60.4 60.4 4.92 7.61 4.12 273.6 246.6 0.0 0.0 66.54
2020-04-04 23:20 60.71 17.94 16.84 60.71 60.71 4.38 6.89 4.41 226.8 244.0 0.0 0.0 66.43
2020-04-04 23:25 60.66 17.9 16.74 60.66 60.66 2.24 5.82 3.42 204.9 244.0 0.0 0.0 66.31
2020-04-04 23:30 60.6 17.84 16.62 60.6 60.6 2.95 6.0 3.33 340.5 232.9 0.0 0.0 66.2
2020-04-04 23:35 60.3 17.94 16.5 60.3 60.3 3.49 6.35 3.13 231.4 244.3 0.0 0.0 66.11
2020-04-04 23:40 59.92 18.18 16.5 59.92 59.92 0.98 6.71 3.36 203.5 237.5 0.0 0.0 65.98
2020-04-04 23:45 59.32 18.93 16.94 59.32 59.32 2.06 3.85 2.48 272.9 232.8 0.0 0.0 65.88
2020-04-04 23:50 58.96 19.44 17.26 58.96 58.96 1.7 4.38 1.97 220.7 232.6 0.0 0.0 65.77
2020-04-04 23:55 58.35 19.91 17.31 58.35 58.35 0.0 3.67 1.92 215.4 217.6 0.0 0.0 65.68
2020-04-05 00:00 58.37 19.37 16.68 58.37 58.37 2.95 4.38 2.21 246.2 233.9 0.0 0.0 65.57
2020-04-05 00:05 57.94 19.78 16.81 57.94 57.94 4.03 4.21 2.3 207.5 235.8 0.0 0.0 65.44
2020-04-05 00:10 58.12 19.68 16.84 58.12 58.12 2.24 4.03 2.44 214.7 240.1 0.0 0.0 65.35
2020-04-05 00:15 57.88 19.85 16.85 57.88 57.88 2.24 4.56 2.46 177.0 220.2 0.0 0.0 65.23
2020-04-05 00:20 57.27 20.66 17.26 57.27 57.27 0.0 2.42 1.34 173.7 189.8 0.0 0.0 65.1
2020-04-05 00:25 56.23 21.95 17.79 56.23 56.23 0.0 0.81 0.02 143.5 197.2 0.0 0.0 65.01
2020-04-05 00:30 53.96 26.44 20.22 53.96 53.96 0.0 0.0 0.0 185.5 0.0 0.0 0.0 64.89
2020-04-05 00:35 52.86 26.27 19.12 52.86 52.86 0.0 0.0 0.0 117.7 0.0 0.0 0.0 64.8
2020-04-05 00:40 52.12 27.6 19.64 52.12 52.12 0.0 0.0 0.0 23.4 0.0 0.0 0.0 64.69
2020-04-05 00:45 51.84 28.35 20.02 51.84 51.84 0.0 0.81 0.02 123.4 47.5 0.0 0.0 64.56
2020-04-05 00:50 51.4 29.03 20.21 51.4 51.4 0.0 0.0 0.0 303.2 0.0 0.0 0.0 64.45
2020-04-05 00:55 51.28 28.35 19.54 51.28 51.28 0.0 0.81 0.04 13.9 312.3 0.0 0.0 64.33
2020-04-05 01:00 50.74 27.91 18.71 50.74 50.74 0.0 0.0 0.0 243.5 0.0 0.0 0.0 64.22
2020-04-05 01:05 50.02 29.64 19.49 50.02 50.02 0.0 0.0 0.0 84.9 0.0 0.0 0.0 64.09
2020-04-05 01:10 49.53 33.12 21.68 49.53 49.53 0.0 0.0 0.0 69.2 0.0 0.0 0.0 64.0
2020-04-05 01:15 48.51 33.93 21.34 48.51 48.51 0.0 0.98 0.07 176.5 43.4 0.0 0.0 63.88
2020-04-05 01:20 48.07 34.62 21.44 48.07 48.07 0.0 0.0 0.0 3.2 0.0 0.0 0.0 63.77
2020-04-05 01:25 48.02 35.1 21.71 48.02 48.02 0.0 0.0 0.0 250.0 0.0 0.0 0.0 63.66
2020-04-05 01:30 47.71 33.8 20.55 47.71 47.71 0.0 0.0 0.0 245.0 0.0 0.0 0.0 63.54
2020-04-05 01:35 47.23 35.5 21.28 47.23 47.23 0.0 0.0 0.0 302.2 0.0 0.0 0.0 63.45
2020-04-05 01:40 46.26 35.81 20.62 46.26 46.26 0.0 0.0 0.0 54.8 0.0 0.0 0.0 63.32
2020-04-05 01:45 45.64 34.93 19.49 45.64 45.64 0.0 0.81 0.02 258.9 277.7 0.0 0.0 63.21
2020-04-05 01:50 45.28 36.46 20.18 45.28 45.28 0.0 0.0 0.0 343.0 0.0 0.0 0.0 63.1
2020-04-05 01:55 44.98 36.74 20.08 44.98 44.98 0.0 0.0 0.0 264.8 0.0 0.0 0.0 63.01
2020-04-05 02:00 44.51 36.84 19.73 44.51 44.51 0.0 0.0 0.0 258.7 0.0 0.0 0.0 62.89
2020-04-05 02:05 44.51 36.13 19.27 44.51 44.51 0.0 0.0 0.0 299.1 0.0 0.0 0.0 62.78
2020-04-05 02:10 44.92 35.99 19.55 44.92 44.92 0.0 0.0 0.0 290.5 0.0 0.0 0.0 62.67
2020-04-05 02:15 44.82 36.3 19.66 44.82 44.82 0.0 0.0 0.0 261.1 0.0 0.0 0.0 62.56
2020-04-05 02:20 44.15 37.29 19.69 44.15 44.15 0.0 0.0 0.0 278.2 0.0 0.0 0.0 62.44
2020-04-05 02:25 43.48 38.38 19.77 43.48 43.48 0.0 0.0 0.0 273.9 0.0 0.0 0.0 62.33
2020-04-05 02:30 43.12 40.02 20.43 43.12 43.12 0.0 0.0 0.0 63.6 0.0 0.0 0.0 62.2
2020-04-05 02:35 42.75 40.16 20.17 42.75 42.75 0.0 1.52 0.18 183.2 159.9 0.0 0.0 62.1
2020-04-05 02:40 42.33 40.26 19.86 42.33 42.33 0.0 0.0 0.0 47.6 0.0 0.0 0.0 62.01
2020-04-05 02:45 42.26 41.96 20.77 42.26 42.26 0.0 0.0 0.0 84.8 0.0 0.0 0.0 61.9
2020-04-05 02:50 41.72 44.78 21.81 41.72 41.72 0.0 0.0 0.0 53.4 0.0 0.0 0.0 61.79
2020-04-05 02:55 40.62 44.55 20.69 40.62 40.62 0.0 0.0 0.0 142.3 0.0 0.0 0.0 61.66
2020-04-05 03:00 40.42 45.47 20.99 40.42 40.42 0.0 0.0 0.0 283.0 0.0 0.0 0.0 61.56
2020-04-05 03:05 40.62 45.57 21.22 40.62 40.62 0.0 0.0 0.0 26.6 0.0 0.0 0.0 61.43
2020-04-05 03:10 40.68 45.53 21.25 40.68 40.68 0.0 0.0 0.0 206.7 0.0 0.0 0.0 61.32
2020-04-05 03:15 40.73 45.94 21.51 40.73 40.73 0.0 2.59 0.43 200.6 195.5 0.0 0.0 61.25
2020-04-05 03:20 40.8 43.83 20.47 40.8 40.8 0.0 0.0 0.0 298.1 0.0 0.0 0.0 61.14
2020-04-05 03:25 40.93 44.48 20.93 40.93 40.93 0.0 0.0 0.0 111.2 0.0 0.0 0.0 61.02
2020-04-05 03:30 40.87 44.89 21.1 40.87 40.87 0.0 0.0 0.0 335.5 0.0 0.0 0.0 60.91
2020-04-05 03:35 40.5 44.31 20.44 40.5 40.5 0.0 2.77 0.58 215.0 254.2 0.0 0.0 60.82
2020-04-05 03:40 40.26 45.1 20.65 40.26 40.26 0.0 0.0 0.0 91.3 0.0 0.0 0.0 60.71
2020-04-05 03:45 40.01 43.23 19.42 37.81 40.01 3.49 5.28 1.52 276.4 287.5 0.0 0.0 60.6
2020-04-05 03:50 40.39 44.04 20.2 40.39 40.39 0.0 3.13 0.27 41.9 196.7 0.0 0.0 60.49
2020-04-05 03:55 40.32 43.81 20.01 40.32 40.32 0.0 0.0 0.0 205.0 0.0 0.0 0.0 60.4
2020-04-05 04:00 40.19 45.71 20.9 40.19 40.19 0.0 0.0 0.0 255.3 0.0 0.0 0.0 60.3
2020-04-05 04:05 39.65 45.17 20.12 39.65 39.65 0.0 1.34 0.11 134.8 280.8 0.0 0.0 60.17
2020-04-05 04:10 39.47 45.47 20.11 39.47 39.47 0.0 0.0 0.0 270.9 0.0 0.0 0.0 60.1
2020-04-05 04:15 39.22 46.43 20.37 39.22 39.22 0.0 0.0 0.0 266.0 0.0 0.0 0.0 59.99
2020-04-05 04:20 39.22 45.38 19.84 39.22 39.22 0.0 0.81 0.09 16.4 322.7 0.0 0.0 59.86
2020-04-05 04:25 39.34 45.68 20.11 39.34 39.34 0.0 0.0 0.0 136.2 0.0 0.0 0.0 59.79
2020-04-05 04:30 39.04 46.98 20.49 39.04 39.04 0.0 0.0 0.0 289.5 0.0 0.0 0.0 59.67
2020-04-05 04:35 38.43 46.37 19.62 38.43 38.43 0.0 0.0 0.0 125.8 0.0 0.0 0.0 59.58
2020-04-05 04:40 37.81 50.86 21.23 37.81 37.81 0.0 0.0 0.0 151.5 0.0 0.0 0.0 59.49
2020-04-05 04:45 38.01 50.93 21.44 38.01 38.01 0.0 0.0 0.0 261.9 0.0 0.0 0.0 59.36
2020-04-05 04:50 38.19 49.77 21.07 38.19 38.19 0.0 0.0 0.0 246.8 0.0 0.0 0.0 59.29
2020-04-05 04:55 38.32 49.09 20.86 38.32 38.32 0.0 0.0 0.0 292.3 0.0 0.0 0.0 59.18
2020-04-05 05:00 38.43 48.65 20.75 38.43 38.43 0.0 0.0 0.0 329.4 0.0 0.0 0.0 59.09
2020-04-05 05:05 38.25 51.61 21.98 38.25 38.25 0.0 0.0 0.0 198.1 0.0 0.0 0.0 58.98
2020-04-05 05:10 37.94 49.4 20.66 37.94 37.94 0.0 0.0 0.0 238.7 0.0 0.0 0.0 58.87
2020-04-05 05:15 37.71 50.38 20.9 37.71 37.71 0.0 0.0 0.0 44.8 0.0 0.0 0.0 58.8
2020-04-05 05:20 37.51 49.87 20.48 37.51 37.51 0.0 0.81 0.04 218.9 258.9 0.0 0.0 58.71
2020-04-05 05:25 37.51 49.7 20.4 37.51 37.51 0.0 0.0 0.0 241.9 0.0 0.0 0.0 58.6
2020-04-05 05:30 37.09 49.33 19.84 37.09 37.09 0.0 0.0 0.0 313.4 0.0 0.0 0.0 58.5
2020-04-05 05:35 36.84 50.38 20.1 36.84 36.84 0.0 0.0 0.0 198.6 0.0 0.0 0.0 58.42
2020-04-05 05:40 36.46 51.98 20.49 36.46 36.46 0.0 0.0 0.0 125.2 0.0 0.0 0.0 58.32
2020-04-05 05:45 36.1 56.75 22.23 36.1 36.1 0.0 0.0 0.0 190.2 0.0 0.0 0.0 58.23
2020-04-05 05:50 35.74 56.96 21.98 35.74 35.74 0.0 0.0 0.0 322.4 0.0 0.0 0.0 58.12
2020-04-05 05:55 36.0 55.73 21.7 36.0 36.0 0.0 0.0 0.0 199.9 0.0 0.0 0.0 58.05
2020-04-05 06:00 36.18 53.97 21.11 32.85 36.18 4.03 4.92 1.43 281.1 294.7 0.0 0.0 57.97
2020-04-05 06:05 36.12 54.52 21.3 36.12 36.12 0.0 3.13 0.38 120.3 259.9 0.0 0.0 57.85
2020-04-05 06:10 35.94 53.84 20.83 35.94 35.94 0.0 4.38 1.01 227.3 286.3 0.0 0.0 57.78
2020-04-05 06:15 35.46 54.83 20.81 35.46 35.46 1.88 1.88 0.11 288.6 286.8 0.0 0.0 57.67
2020-04-05 06:20 35.46 56.53 21.53 35.46 35.46 0.0 1.88 0.11 182.0 281.6 0.0 0.0 57.6
2020-04-05 06:25 35.2 56.67 21.35 35.2 35.2 0.0 0.0 0.0 105.6 0.0 0.0 0.0 57.49
2020-04-05 06:30 35.1 56.77 21.29 35.1 35.1 0.0 1.88 0.25 235.3 242.6 0.0 0.0 57.4
2020-04-05 06:35 35.15 56.05 21.04 35.15 35.15 0.0 0.0 0.0 243.2 0.0 0.0 0.0 57.29
2020-04-05 06:40 34.84 56.8 21.07 34.84 34.84 0.0 0.0 0.0 171.4 0.0 0.0 0.0 57.2
2020-04-05 06:45 34.72 57.45 21.22 34.72 34.72 0.0 0.0 0.0 149.0 0.0 0.0 0.001 57.13
2020-04-05 06:50 34.48 57.25 20.91 34.48 34.48 0.0 0.0 0.0 304.3 0.0 0.0 0.001 57.04
2020-04-05 06:55 34.48 57.07 20.84 34.48 34.48 0.0 0.0 0.0 48.0 0.0 0.0 0.002 56.95
2020-04-05 07:00 34.36 56.97 20.68 34.36 34.36 0.0 0.0 0.0 1.8 0.0 0.0 0.002 56.86
2020-04-05 07:05 34.36 55.95 20.26 34.36 34.36 0.0 0.0 0.0 291.8 0.0 0.0 0.003 56.75
2020-04-05 07:10 34.18 57.18 20.6 34.18 34.18 0.0 0.0 0.0 56.6 0.0 0.0 0.004 56.68
2020-04-05 07:15 34.05 58.03 20.83 34.05 34.05 0.0 0.0 0.0 148.8 0.0 0.0 0.004 56.61
2020-04-05 07:20 34.11 64.94 23.55 34.11 34.11 0.0 0.0 0.0 50.1 0.0 0.0 0.005 56.5
2020-04-05 07:25 34.59 61.88 22.86 34.59 34.59 0.0 0.0 0.0 256.3 0.0 0.0 0.006 56.44
2020-04-05 07:30 35.53 58.98 22.6 35.53 35.53 0.0 0.0 0.0 116.0 0.0 0.0 0.006 56.35
2020-04-05 07:35 36.01 62.97 24.62 36.01 36.01 0.0 0.0 0.0 168.6 0.0 0.0 0.007 56.28
2020-04-05 07:40 36.86 57.65 23.31 36.86 36.86 0.0 0.0 0.0 338.1 0.0 0.0 0.007 56.21
2020-04-05 07:45 38.82 50.81 22.14 38.82 38.82 2.59 2.95 0.54 281.8 297.1 0.0 0.009 56.14
2020-04-05 07:50 40.17 47.16 21.62 40.17 40.17 0.81 4.38 2.91 277.1 284.2 0.0 0.018 56.07
2020-04-05 07:55 41.29 46.11 22.11 41.29 41.29 0.0 3.85 1.05 43.1 306.6 0.0 0.02 55.99
2020-04-05 08:00 42.26 44.54 22.18 42.26 42.26 0.0 1.16 0.09 107.8 341.5 0.0 0.017 55.94
2020-04-05 08:05 42.87 45.84 23.42 42.87 42.87 0.0 0.0 0.0 46.0 0.0 0.0 0.026 55.85
2020-04-05 08:10 43.72 47.5 25.05 43.72 43.72 0.81 0.81 0.02 175.1 175.1 0.0 0.04 55.81
2020-04-05 08:15 43.95 42.18 22.42 43.95 43.95 0.0 0.98 0.02 79.5 127.6 0.0 0.056 55.76
2020-04-05 08:20 44.08 44.97 24.06 44.08 44.08 0.0 0.81 0.02 137.2 157.4 0.0 0.062 55.69
2020-04-05 08:25 45.23 43.98 24.58 45.23 45.23 0.0 0.0 0.0 173.0 0.0 0.0 0.071 55.63
2020-04-05 08:30 46.45 46.46 27.02 46.45 46.45 0.0 0.0 0.0 176.6 0.0 0.0 0.063 55.6
2020-04-05 08:35 47.17 42.89 25.74 47.17 47.17 0.0 0.81 0.02 345.5 7.9 0.0 0.063 55.54
2020-04-05 08:40 47.23 43.36 26.06 47.23 47.23 2.59 4.38 2.39 67.3 39.5 0.0 0.08 55.51
2020-04-05 08:45 47.48 42.4 25.74 47.48 47.48 2.06 3.13 2.1 57.0 42.5 0.0 0.079 55.49
2020-04-05 08:50 48.15 40.23 25.08 47.43 48.15 3.13 3.31 2.59 35.3 43.1 0.0 0.075 55.47
2020-04-05 08:55 48.13 41.1 25.58 47.41 48.13 3.13 3.49 2.66 32.2 38.1 0.0 0.093 55.44
2020-04-05 09:00 49.1 38.48 24.87 49.1 49.1 2.59 3.49 2.89 27.1 34.1 0.0 0.117 55.42
2020-04-05 09:05 50.45 33.98 23.1 50.45 50.45 1.7 3.31 1.63 249.6 38.8 0.0 0.115 55.4
2020-04-05 09:10 51.35 27.99 19.3 51.35 51.35 0.0 1.52 0.27 83.2 196.6 0.0 0.108 55.42
2020-04-05 09:15 52.68 29.08 21.36 52.68 52.68 2.42 2.77 1.28 48.4 36.5 0.0 0.128 55.42
2020-04-05 09:20 52.92 29.14 21.61 52.92 52.92 0.81 2.77 1.28 273.1 352.9 0.0 0.113 55.45
2020-04-05 09:25 53.94 28.49 21.96 53.94 53.94 1.34 2.59 1.52 46.7 339.2 0.0 0.121 55.49
2020-04-05 09:30 54.23 29.61 23.13 54.23 54.23 2.06 2.24 1.68 289.5 33.4 0.0 0.129 55.56
2020-04-05 09:35 55.02 27.5 22.06 55.02 55.02 2.06 2.42 1.68 55.7 19.5 0.0 0.138 55.65
2020-04-05 09:40 55.8 28.35 23.45 55.8 55.8 2.77 3.49 1.66 266.3 274.0 0.0 0.147 55.74
2020-04-05 09:45 57.33 24.44 21.24 57.33 57.33 2.95 3.13 1.83 174.1 266.7 0.0 0.164 55.85
2020-04-05 09:50 57.25 23.86 20.61 57.25 57.25 1.16 2.59 1.72 101.1 85.4 0.0 0.16 55.96
2020-04-05 09:55 59.14 23.0 21.35 59.14 59.14 4.38 4.38 1.28 238.7 237.0 0.0 0.167 56.1
2020-04-05 10:00 58.51 22.49 20.29 58.51 58.51 0.0 4.56 2.21 215.8 225.9 0.0 0.141 56.25
2020-04-05 10:05 59.31 23.03 21.51 59.31 59.31 0.81 2.77 1.5 17.9 19.3 0.0 0.157 56.43
2020-04-05 10:10 60.39 27.14 26.36 60.39 60.39 1.88 3.49 2.13 202.0 288.2 0.0 0.16 56.61
2020-04-05 10:15 61.84 22.76 23.37 61.84 61.84 1.16 3.85 1.05 124.2 195.0 0.0 0.161 56.8
2020-04-05 10:20 63.01 21.74 23.26 63.01 63.01 2.59 3.13 1.1 67.1 76.7 0.0 0.152 56.98
2020-04-05 10:25 62.89 20.82 22.13 62.89 62.89 0.0 2.42 0.47 77.2 51.5 0.0 0.174 57.2
2020-04-05 10:30 63.36 19.19 20.59 63.36 63.36 0.0 2.59 0.4 127.3 46.4 0.0 0.191 57.38
2020-04-05 10:35 64.08 18.47 20.28 64.08 64.08 1.7 1.7 0.51 340.5 321.9 0.0 0.189 57.6
2020-04-05 10:40 63.59 17.52 18.65 63.59 63.59 0.0 3.67 1.68 24.0 254.9 0.0 0.165 57.81
2020-04-05 10:45 63.09 18.81 19.9 63.09 63.09 0.0 4.56 1.68 337.2 213.7 0.0 0.19 58.06
2020-04-05 10:50 63.52 21.35 23.25 63.52 63.52 2.42 2.95 1.66 145.7 215.7 0.0 0.188 58.26
2020-04-05 10:55 63.45 16.97 17.79 63.45 63.45 0.81 4.92 2.98 344.4 161.6 0.0 0.211 58.51
2020-04-05 11:00 64.72 18.19 20.46 64.72 64.72 1.52 6.35 2.48 164.5 165.4 0.0 0.218 58.75
2020-04-05 11:05 64.71 19.11 21.61 64.71 64.71 3.13 4.56 3.15 185.9 197.9 0.0 0.227 59.0
2020-04-05 11:10 65.5 18.29 21.22 65.5 65.5 2.24 5.82 3.56 242.3 245.9 0.0 0.23 59.23
2020-04-05 11:15 65.19 17.24 19.58 65.19 65.19 2.77 4.92 3.44 294.3 312.3 0.0 0.232 59.5
2020-04-05 11:20 65.01 21.99 25.21 65.01 65.01 3.13 4.56 3.58 225.5 188.8 0.0 0.224 59.77
2020-04-05 11:25 64.89 17.38 19.52 64.89 64.89 3.85 5.64 3.83 258.1 194.1 0.0 0.239 60.06

Data is courtesy of the NM Climate Center. DO NOT USE IN LEGAL PROCEEDINGS.